createdAt,value
2022-11-04T00:02:03.822Z,10.00
2022-11-04T00:04:30.617Z,10.00
2022-11-04T00:06:57.907Z,10.00
2022-11-04T00:09:27.977Z,9.90
2022-11-04T00:12:14.090Z,9.90
2022-11-04T00:14:40.922Z,9.80
2022-11-04T00:17:21.966Z,9.80
2022-11-04T00:20:09.638Z,9.80
2022-11-04T00:22:56.118Z,9.80
2022-11-04T00:28:32.867Z,9.70
2022-11-04T00:31:21.555Z,9.70
2022-11-04T00:33:49.895Z,9.70
2022-11-04T00:36:16.941Z,9.60
2022-11-04T00:38:43.815Z,9.50
2022-11-04T00:41:30.056Z,9.50
2022-11-04T00:44:02.274Z,9.50
2022-11-04T00:46:30.699Z,9.50
2022-11-04T00:48:57.593Z,9.50
2022-11-04T00:51:24.507Z,9.50
2022-11-04T00:53:51.961Z,9.50
2022-11-04T00:56:18.575Z,9.40
2022-11-04T00:58:45.324Z,9.40
2022-11-04T01:01:17.527Z,9.40
2022-11-04T01:03:51.304Z,9.40
2022-11-04T01:06:18.768Z,9.40
2022-11-04T01:08:46.168Z,9.30
2022-11-04T01:11:13.737Z,9.20
2022-11-04T01:13:41.805Z,9.20
2022-11-04T01:16:11.132Z,9.20
2022-11-04T01:18:38.309Z,9.10
2022-11-04T01:21:06.792Z,9.00
2022-11-04T01:23:36.807Z,8.90
2022-11-04T01:26:08.381Z,8.80
2022-11-04T01:28:34.995Z,8.80
2022-11-04T01:31:13.286Z,8.80
2022-11-04T01:33:40.375Z,8.70
2022-11-04T01:36:08.215Z,8.60
2022-11-04T01:38:35.525Z,8.60
2022-11-04T01:41:04.496Z,8.60
2022-11-04T01:43:49.771Z,8.60
2022-11-04T01:46:22.472Z,8.50
2022-11-04T01:48:50.283Z,8.50
2022-11-04T01:51:17.375Z,8.30
2022-11-04T01:53:44.972Z,8.20
2022-11-04T01:56:14.221Z,8.00
2022-11-04T01:58:48.125Z,8.00
2022-11-04T02:01:14.919Z,7.80
2022-11-04T02:03:50.680Z,7.70
2022-11-04T02:06:19.993Z,7.60
2022-11-04T02:08:47.211Z,7.40
2022-11-04T02:11:34.071Z,7.40
2022-11-04T02:14:01.928Z,7.30
2022-11-04T02:16:43.364Z,7.30
2022-11-04T02:19:44.239Z,7.20
2022-11-04T02:22:31.947Z,7.10
2022-11-04T02:25:19.697Z,7.00
2022-11-04T02:28:23.193Z,7.00
2022-11-04T02:31:33.663Z,7.00
2022-11-04T02:34:26.347Z,6.90
2022-11-04T02:37:08.277Z,6.80
2022-11-04T02:39:52.933Z,6.80
2022-11-04T02:42:32.362Z,6.70
2022-11-04T02:45:29.783Z,6.70
2022-11-04T02:48:12.090Z,6.60
2022-11-04T02:50:51.546Z,6.50
2022-11-04T02:53:27.964Z,6.50
2022-11-04T02:55:57.508Z,6.50
2022-11-04T02:58:34.401Z,6.40
2022-11-04T03:01:03.642Z,6.30
2022-11-04T03:03:45.673Z,6.20
2022-11-04T03:06:14.385Z,6.20
2022-11-04T03:08:46.401Z,6.10
2022-11-04T03:11:17.121Z,6.10
2022-11-04T03:14:13.241Z,6.00
2022-11-04T03:16:46.270Z,5.90
2022-11-04T03:19:34.047Z,5.90
2022-11-04T03:22:14.665Z,5.80
2022-11-04T03:24:43.513Z,5.70
2022-11-04T03:27:33.369Z,5.60
2022-11-04T03:30:11.846Z,5.60
2022-11-04T03:32:42.764Z,5.50
2022-11-04T03:35:10.730Z,5.50
2022-11-04T03:37:37.458Z,5.40
2022-11-04T03:40:04.909Z,5.40
2022-11-04T03:42:34.829Z,5.30
2022-11-04T03:45:01.759Z,5.20
2022-11-04T03:47:30.116Z,5.20
2022-11-04T03:50:07.208Z,5.20
2022-11-04T03:52:34.272Z,5.20
2022-11-04T03:55:00.887Z,5.10
2022-11-04T03:57:58.223Z,5.10
2022-11-04T04:00:29.415Z,5.00
2022-11-04T04:03:02.845Z,5.00
2022-11-04T04:05:30.690Z,4.90
2022-11-04T04:08:09.709Z,4.90
2022-11-04T04:10:42.421Z,4.80
2022-11-04T04:13:16.099Z,4.80
2022-11-04T04:15:48.876Z,4.80
2022-11-04T04:18:19.888Z,4.80
2022-11-04T04:20:49.445Z,4.80
2022-11-04T04:23:43.628Z,4.80
2022-11-04T04:26:31.221Z,4.60
2022-11-04T04:29:02.545Z,4.60
2022-11-04T04:31:49.457Z,4.60
2022-11-04T04:34:18.180Z,4.60
2022-11-04T04:37:11.171Z,4.50
2022-11-04T04:40:05.990Z,4.50
2022-11-04T04:42:54.756Z,4.50
2022-11-04T04:45:38.144Z,4.40
2022-11-04T04:48:13.637Z,4.40
2022-11-04T04:50:49.562Z,4.30
2022-11-04T04:53:16.263Z,4.30
2022-11-04T04:55:42.825Z,4.30
2022-11-04T04:58:10.105Z,4.30
2022-11-04T05:00:36.686Z,4.30
2022-11-04T05:03:03.324Z,4.30
2022-11-04T05:05:29.950Z,4.30
2022-11-04T05:08:03.425Z,4.30
2022-11-04T05:10:30.005Z,4.20
2022-11-04T05:13:15.197Z,4.20
2022-11-04T05:15:41.817Z,4.10
2022-11-04T05:18:08.672Z,4.10
2022-11-04T05:20:38.345Z,4.10
2022-11-04T05:23:04.911Z,4.00
2022-11-04T05:25:31.766Z,4.10
2022-11-04T05:28:02.225Z,4.00
2022-11-04T05:30:29.156Z,4.00
2022-11-04T05:32:59.841Z,4.00
2022-11-04T05:35:30.266Z,4.00
2022-11-04T05:37:57.070Z,4.00
2022-11-04T05:40:24.529Z,3.90
2022-11-04T05:42:51.243Z,3.90
2022-11-04T05:45:17.992Z,3.70
2022-11-04T05:47:44.871Z,3.70
2022-11-04T05:50:11.483Z,3.70
2022-11-04T05:52:38.081Z,3.70
2022-11-04T05:55:05.057Z,3.70
2022-11-04T05:57:38.099Z,3.70
2022-11-04T06:00:05.841Z,3.70
2022-11-04T06:02:32.546Z,3.60
2022-11-04T06:04:59.248Z,3.60
2022-11-04T06:07:25.897Z,3.60
2022-11-04T06:09:52.524Z,3.50
2022-11-04T06:12:19.150Z,3.30
2022-11-04T06:14:45.788Z,3.40
2022-11-04T06:17:16.159Z,3.50
2022-11-04T06:19:43.364Z,3.50
2022-11-04T06:22:12.104Z,3.50
2022-11-04T06:24:38.804Z,3.40
2022-11-04T06:27:05.629Z,3.40
2022-11-04T06:29:32.516Z,3.50
2022-11-04T06:31:59.173Z,3.30
2022-11-04T06:34:25.807Z,3.40
2022-11-04T06:36:53.500Z,3.50
2022-11-04T06:39:20.271Z,3.60
2022-11-04T06:41:50.501Z,3.70
2022-11-04T06:44:19.444Z,3.70
2022-11-04T06:46:46.268Z,3.80
2022-11-04T06:49:18.347Z,3.80
2022-11-04T06:51:45.003Z,3.90
2022-11-04T06:54:12.465Z,4.00
2022-11-04T06:56:39.824Z,4.10
2022-11-04T06:59:06.483Z,4.10
2022-11-04T07:01:36.443Z,4.20
2022-11-04T07:04:07.338Z,4.20
2022-11-04T07:06:36.266Z,4.20
2022-11-04T07:09:05.244Z,4.20
2022-11-04T07:11:32.980Z,4.20
2022-11-04T07:14:01.989Z,4.20
2022-11-04T07:16:28.694Z,4.40
2022-11-04T07:18:55.676Z,4.40
2022-11-04T07:21:22.716Z,4.60
2022-11-04T07:23:50.658Z,4.70
2022-11-04T07:26:17.546Z,4.80
2022-11-04T07:28:44.303Z,4.80
2022-11-04T07:31:12.481Z,4.90
2022-11-04T07:33:39.493Z,5.00
2022-11-04T07:36:10.226Z,5.10
2022-11-04T07:38:36.827Z,5.20
2022-11-04T07:41:03.856Z,5.30
2022-11-04T07:43:31.056Z,5.30
2022-11-04T07:46:03.111Z,5.50
2022-11-04T07:48:29.771Z,5.80
2022-11-04T07:50:59.594Z,5.80
2022-11-04T07:53:30.165Z,6.00
2022-11-04T07:55:57.681Z,6.20
2022-11-04T07:58:25.692Z,6.40
2022-11-04T08:00:59.071Z,6.40
2022-11-04T08:03:25.668Z,6.70
2022-11-04T08:05:57.399Z,6.70
2022-11-04T08:08:24.532Z,6.70
2022-11-04T08:11:00.569Z,6.90
2022-11-04T08:13:28.996Z,7.10
2022-11-04T08:15:56.419Z,7.20
2022-11-04T08:18:23.349Z,7.50
2022-11-04T08:20:51.248Z,7.50
2022-11-04T08:23:18.576Z,7.50
2022-11-04T08:25:45.923Z,7.60
2022-11-04T08:28:17.304Z,7.70
2022-11-04T08:30:54.307Z,7.90
2022-11-04T08:33:21.265Z,8.00
2022-11-04T08:35:47.996Z,8.10
2022-11-04T08:38:14.750Z,8.20
2022-11-04T08:40:41.495Z,8.30
2022-11-04T08:43:08.637Z,8.40
2022-11-04T08:45:40.616Z,8.60
2022-11-04T08:48:07.596Z,8.80
2022-11-04T08:50:34.484Z,8.90
2022-11-04T08:53:01.492Z,8.90
2022-11-04T08:55:31.993Z,9.00
2022-11-04T08:58:00.092Z,9.10
2022-11-04T09:00:28.087Z,9.10
2022-11-04T09:02:55.632Z,9.20
2022-11-04T09:05:22.736Z,9.30
2022-11-04T09:07:49.460Z,9.50
2022-11-04T09:10:16.118Z,9.70
2022-11-04T09:12:43.357Z,9.90
2022-11-04T09:15:10.316Z,10.10
2022-11-04T09:17:37.321Z,10.40
2022-11-04T09:20:05.634Z,10.70
2022-11-04T09:22:32.284Z,11.00
2022-11-04T09:24:58.996Z,11.20
2022-11-04T09:27:25.625Z,11.50
2022-11-04T09:29:52.227Z,11.80
2022-11-04T09:32:18.811Z,12.00
2022-11-04T09:34:45.421Z,12.30
2022-11-04T09:37:13.277Z,12.40
2022-11-04T09:39:39.874Z,12.70
2022-11-04T09:42:29.470Z,12.60
2022-11-04T09:47:52.791Z,12.60
2022-11-04T09:50:26.115Z,12.20
2022-11-04T09:53:10.488Z,12.00
2022-11-04T09:55:44.993Z,12.10
2022-11-04T09:58:14.622Z,12.10
2022-11-04T10:00:48.816Z,12.10
2022-11-04T10:03:21.592Z,12.40
2022-11-04T10:06:05.155Z,13.30
2022-11-04T10:08:48.821Z,13.60
2022-11-04T10:11:26.548Z,14.60
2022-11-04T10:14:47.277Z,15.40
2022-11-04T10:17:28.579Z,16.40
2022-11-04T10:20:22.986Z,17.60
2022-11-04T10:22:58.225Z,18.60
2022-11-04T10:25:41.373Z,18.80
2022-11-04T10:28:13.728Z,19.20
2022-11-04T10:30:43.010Z,18.60
2022-11-04T10:33:32.988Z,18.30
2022-11-04T10:36:06.775Z,17.50
2022-11-04T10:38:39.332Z,16.80
2022-11-04T10:41:26.331Z,16.20
2022-11-04T10:44:15.032Z,16.00
2022-11-04T10:46:59.311Z,16.10
2022-11-04T10:49:40.073Z,15.70
2022-11-04T10:52:09.049Z,15.40
2022-11-04T10:54:53.916Z,15.50
2022-11-04T10:57:26.907Z,15.30
2022-11-04T10:59:58.223Z,15.10
2022-11-04T11:02:37.008Z,15.00
2022-11-04T11:05:18.865Z,14.80
2022-11-04T11:07:46.916Z,14.90
2022-11-04T11:10:23.044Z,14.60
2022-11-04T11:12:57.034Z,14.20
2022-11-04T11:15:32.618Z,14.00
2022-11-04T11:18:18.286Z,14.10
2022-11-04T11:20:50.997Z,14.10
2022-11-04T11:23:38.153Z,13.80
2022-11-04T11:26:07.579Z,13.80
2022-11-04T11:28:38.280Z,14.00
2022-11-04T11:31:18.681Z,14.30
2022-11-04T11:33:52.854Z,14.20
2022-11-04T11:36:24.046Z,13.90
2022-11-04T11:38:55.257Z,14.00
2022-11-04T11:41:28.767Z,13.90
2022-11-04T11:43:56.459Z,14.00
2022-11-04T11:46:29.339Z,14.30
2022-11-04T11:49:01.297Z,14.20
2022-11-04T11:51:33.274Z,15.10
2022-11-04T11:54:12.988Z,15.60
2022-11-04T11:57:11.495Z,15.50
2022-11-04T12:03:15.752Z,14.80
2022-11-04T12:11:50.772Z,13.60
2022-11-04T12:14:20.967Z,13.60
2022-11-04T12:17:01.897Z,13.70
2022-11-04T12:19:34.646Z,13.80
2022-11-04T12:22:14.053Z,13.80
2022-11-04T12:24:57.488Z,13.50
2022-11-04T12:27:29.973Z,13.70
2022-11-04T12:30:06.549Z,15.10
2022-11-04T12:32:53.663Z,16.50
2022-11-04T12:35:29.544Z,18.30
2022-11-04T12:38:03.413Z,19.90
2022-11-04T12:41:04.971Z,21.20
2022-11-04T12:44:19.707Z,19.80
2022-11-04T12:46:52.199Z,18.10
2022-11-04T12:49:50.192Z,17.50
2022-11-04T12:52:42.628Z,17.20
2022-11-04T12:55:27.922Z,16.20
2022-11-04T12:58:28.609Z,16.00
2022-11-04T13:01:01.749Z,16.30
2022-11-04T13:04:04.670Z,17.00
2022-11-04T13:06:37.779Z,16.90
2022-11-04T13:09:32.767Z,16.50
2022-11-04T13:12:03.968Z,15.80
2022-11-04T13:14:58.765Z,15.10
2022-11-04T13:17:33.503Z,14.60
2022-11-04T13:20:13.968Z,14.20
2022-11-04T13:22:48.529Z,14.00
2022-11-04T13:25:29.204Z,13.80
2022-11-04T13:27:56.826Z,13.70
2022-11-04T13:30:51.061Z,13.50
2022-11-04T13:33:29.618Z,13.30
2022-11-04T13:36:21.008Z,13.20
2022-11-04T13:38:55.167Z,13.10
2022-11-04T13:41:46.799Z,12.90
2022-11-04T13:44:26.531Z,12.70
2022-11-04T13:46:57.898Z,12.60
2022-11-04T13:49:30.585Z,12.60
2022-11-04T13:52:01.380Z,12.50
2022-11-04T13:54:34.027Z,12.50
2022-11-04T13:57:23.354Z,12.50
2022-11-04T14:00:12.961Z,12.50
2022-11-04T14:02:43.340Z,12.50
2022-11-04T14:05:28.675Z,12.30
2022-11-04T14:08:01.512Z,12.20
2022-11-04T14:10:49.361Z,12.10
2022-11-04T14:13:28.332Z,11.90
2022-11-04T14:16:04.185Z,11.80
2022-11-04T14:18:36.601Z,11.80
2022-11-04T14:21:03.214Z,11.80
2022-11-04T14:23:29.899Z,11.80
2022-11-04T14:26:02.696Z,11.80
2022-11-04T14:28:30.876Z,11.80
2022-11-04T14:31:16.928Z,11.80
2022-11-04T14:33:56.114Z,11.80
2022-11-04T14:36:36.849Z,11.80
2022-11-04T14:39:24.092Z,11.70
2022-11-04T14:41:56.775Z,11.70
2022-11-04T14:44:49.663Z,11.70
2022-11-04T14:47:29.808Z,11.60
2022-11-04T14:50:01.430Z,11.50
2022-11-04T14:52:32.816Z,11.50
2022-11-04T14:55:11.425Z,11.50
2022-11-04T14:58:06.292Z,11.30
2022-11-04T15:00:40.711Z,11.20
2022-11-04T15:06:11.398Z,11.20
2022-11-04T15:08:40.686Z,11.10
2022-11-04T15:11:16.589Z,11.00
2022-11-04T15:13:43.643Z,11.00
2022-11-04T15:16:24.472Z,11.10
2022-11-04T15:18:53.451Z,11.10
2022-11-04T15:21:20.349Z,11.00
2022-11-04T15:23:52.750Z,11.00
2022-11-04T15:26:30.429Z,10.90
2022-11-04T15:29:00.379Z,11.00
2022-11-04T15:31:32.962Z,11.00
2022-11-04T15:34:02.906Z,11.00
2022-11-04T15:36:41.324Z,10.90
2022-11-04T15:39:17.436Z,10.80
2022-11-04T15:42:04.647Z,10.80
2022-11-04T15:44:34.121Z,10.80
2022-11-04T15:47:28.218Z,10.70
2022-11-04T15:50:04.110Z,10.70
2022-11-04T15:52:30.760Z,10.70
2022-11-04T15:54:59.832Z,10.60
2022-11-04T15:57:38.423Z,10.50
2022-11-04T16:00:15.632Z,10.50
2022-11-04T16:03:17.367Z,10.40
2022-11-04T16:05:44.027Z,10.30
2022-11-04T16:08:22.718Z,10.30
2022-11-04T16:10:50.600Z,10.20
2022-11-04T16:13:17.229Z,10.20
2022-11-04T16:15:50.976Z,10.00
2022-11-04T16:18:23.410Z,10.00
2022-11-04T16:20:53.203Z,9.90
2022-11-04T16:23:23.611Z,9.80
2022-11-04T16:26:06.157Z,9.80
2022-11-04T16:28:37.738Z,9.80
2022-11-04T16:31:21.392Z,9.70
2022-11-04T16:33:48.517Z,9.70
2022-11-04T16:36:26.101Z,9.70
2022-11-04T16:38:59.275Z,9.60
2022-11-04T16:41:28.903Z,9.60
2022-11-04T16:43:56.109Z,9.60
2022-11-04T16:46:26.294Z,9.60
2022-11-04T16:48:52.988Z,9.50
2022-11-04T16:51:22.411Z,9.50
2022-11-04T16:53:51.523Z,9.50
2022-11-04T16:56:21.182Z,9.40
2022-11-04T16:58:48.129Z,9.40
2022-11-04T17:01:17.646Z,9.40
2022-11-04T17:03:44.761Z,9.50
2022-11-04T17:06:14.366Z,9.50
2022-11-04T17:08:44.537Z,9.50
2022-11-04T17:11:12.273Z,9.50
2022-11-04T17:13:39.332Z,9.50
2022-11-04T17:16:07.022Z,9.60
2022-11-04T17:18:34.795Z,9.60
2022-11-04T17:21:06.149Z,9.50
2022-11-04T17:23:32.907Z,9.50
2022-11-04T17:25:59.610Z,9.40
2022-11-04T17:28:27.349Z,9.40
2022-11-04T17:30:54.135Z,9.30
2022-11-04T17:33:21.010Z,9.30
2022-11-04T17:35:50.642Z,9.40
2022-11-04T17:38:18.956Z,9.40
2022-11-04T17:41:04.481Z,9.40
2022-11-04T17:43:49.826Z,9.40
2022-11-04T17:46:34.961Z,9.40
2022-11-04T17:49:03.982Z,9.40
2022-11-04T17:51:31.113Z,9.40
2022-11-04T17:53:57.818Z,9.50
2022-11-04T17:56:25.060Z,9.40
2022-11-04T17:58:52.286Z,9.40
2022-11-04T18:01:21.045Z,9.40
2022-11-04T18:03:48.224Z,9.30
2022-11-04T18:06:14.868Z,9.30
2022-11-04T18:08:41.451Z,9.30
2022-11-04T18:11:10.396Z,9.40
2022-11-04T18:13:37.637Z,9.40
2022-11-04T18:16:12.448Z,9.40
2022-11-04T18:18:39.847Z,9.40
2022-11-04T18:21:08.391Z,9.40
2022-11-04T18:23:35.273Z,9.40
2022-11-04T18:26:02.906Z,9.50
2022-11-04T18:28:29.598Z,9.40
2022-11-04T18:30:56.185Z,9.30
2022-11-04T18:33:22.774Z,9.40
2022-11-04T18:35:49.425Z,9.40
2022-11-04T18:38:16.008Z,9.40
2022-11-04T18:40:42.650Z,9.30
2022-11-04T18:43:09.556Z,9.30
2022-11-04T18:45:36.729Z,9.30
2022-11-04T18:48:07.216Z,9.20
2022-11-04T18:50:34.283Z,9.30
2022-11-04T18:53:01.140Z,9.30
2022-11-04T18:55:27.849Z,9.30
2022-11-04T18:57:55.521Z,9.30
2022-11-04T19:00:22.539Z,9.30
2022-11-04T19:02:49.224Z,9.20
2022-11-04T19:05:16.482Z,9.20
2022-11-04T19:07:43.619Z,9.30
2022-11-04T19:10:11.173Z,9.20
2022-11-04T19:12:56.369Z,9.10
2022-11-04T19:15:23.258Z,9.10
2022-11-04T19:17:50.363Z,9.10
2022-11-04T19:20:17.088Z,9.00
2022-11-04T19:22:43.979Z,9.00
2022-11-04T19:25:11.235Z,9.00
2022-11-04T19:27:37.876Z,9.00
2022-11-04T19:30:05.318Z,8.90
2022-11-04T19:32:31.919Z,8.90
2022-11-04T19:34:58.546Z,8.80
2022-11-04T19:37:25.377Z,8.80
2022-11-04T19:39:52.015Z,8.70
2022-11-04T19:42:38.325Z,8.70
2022-11-04T19:45:05.386Z,8.70
2022-11-04T19:47:32.000Z,8.80
2022-11-04T19:49:58.640Z,8.80
2022-11-04T19:52:25.292Z,8.80
2022-11-04T19:54:52.138Z,8.90
2022-11-04T19:57:18.917Z,8.80
2022-11-04T19:59:45.628Z,8.90
2022-11-04T20:02:15.559Z,8.80
2022-11-04T20:04:46.138Z,8.80
2022-11-04T20:07:12.837Z,8.90
2022-11-04T20:09:39.930Z,8.90
2022-11-04T20:12:25.855Z,8.90
2022-11-04T20:14:55.963Z,8.90
2022-11-04T20:17:23.078Z,8.90
2022-11-04T20:19:49.777Z,8.90
2022-11-04T20:22:16.652Z,8.90
2022-11-04T20:24:44.449Z,8.90
2022-11-04T20:27:15.057Z,8.90
2022-11-04T20:29:42.859Z,8.90
2022-11-04T20:32:09.797Z,8.90
2022-11-04T20:34:36.424Z,8.90
2022-11-04T20:37:04.161Z,8.80
2022-11-04T20:39:31.442Z,8.70
2022-11-04T20:41:58.097Z,8.70
2022-11-04T20:44:24.719Z,8.80
2022-11-04T20:46:51.360Z,8.80
2022-11-04T20:49:17.972Z,8.80
2022-11-04T20:51:50.112Z,8.80
2022-11-04T20:54:19.279Z,8.70
2022-11-04T20:56:45.968Z,8.70
2022-11-04T20:59:13.747Z,8.70
2022-11-04T21:01:42.974Z,8.70
2022-11-04T21:04:14.791Z,8.70
2022-11-04T21:06:42.075Z,8.70
2022-11-04T21:09:12.466Z,8.70
2022-11-04T21:11:39.937Z,8.60
2022-11-04T21:14:13.041Z,8.60
2022-11-04T21:16:40.275Z,8.60
2022-11-04T21:19:07.745Z,8.60
2022-11-04T21:21:34.447Z,8.60
2022-11-04T21:24:03.070Z,8.60
2022-11-04T21:26:32.866Z,8.60
2022-11-04T21:29:02.376Z,8.60
2022-11-04T21:31:31.521Z,8.70
2022-11-04T21:33:59.139Z,8.70
2022-11-04T21:36:26.084Z,8.60
2022-11-04T21:38:52.916Z,8.60
2022-11-04T21:41:23.064Z,8.60
2022-11-04T21:43:57.273Z,8.60
2022-11-04T21:46:25.317Z,8.70
2022-11-04T21:48:53.024Z,8.60
2022-11-04T21:51:22.612Z,8.70
2022-11-04T21:53:49.300Z,8.60
2022-11-04T21:56:28.522Z,8.60
2022-11-04T21:58:55.817Z,8.60
2022-11-04T22:01:25.821Z,8.60
2022-11-04T22:03:55.726Z,8.60
2022-11-04T22:06:22.905Z,8.50
2022-11-04T22:08:54.173Z,8.50
2022-11-04T22:11:24.125Z,8.50
2022-11-04T22:13:58.382Z,8.50
2022-11-04T22:16:30.742Z,8.50
2022-11-04T22:19:02.239Z,8.50
2022-11-04T22:21:31.985Z,8.50
2022-11-04T22:23:59.088Z,8.50
2022-11-04T22:26:31.072Z,8.40
2022-11-04T22:28:58.690Z,8.40
2022-11-04T22:31:34.448Z,8.40
2022-11-04T22:34:01.901Z,8.40
2022-11-04T22:36:30.224Z,8.40
2022-11-04T22:38:57.567Z,8.40
2022-11-04T22:41:30.517Z,8.40
2022-11-04T22:43:57.543Z,8.40
2022-11-04T22:46:26.529Z,8.40
2022-11-04T22:48:53.270Z,8.40
2022-11-04T22:51:20.459Z,8.40
2022-11-04T22:53:56.692Z,8.40
2022-11-04T22:56:24.603Z,8.40
2022-11-04T22:58:53.878Z,8.30
2022-11-04T23:01:20.707Z,8.20
2022-11-04T23:03:47.668Z,8.30
2022-11-04T23:06:15.596Z,8.20
2022-11-04T23:08:42.318Z,8.20
2022-11-04T23:11:39.528Z,8.20
2022-11-04T23:14:25.068Z,8.20
2022-11-04T23:17:11.379Z,8.30
2022-11-04T23:19:38.824Z,8.40
2022-11-04T23:22:24.804Z,8.40
2022-11-04T23:25:06.693Z,8.50
2022-11-04T23:28:04.039Z,8.60
2022-11-04T23:30:36.678Z,8.60
2022-11-04T23:33:05.905Z,8.60
2022-11-04T23:36:00.705Z,8.60
2022-11-04T23:38:30.708Z,8.50
2022-11-04T23:41:23.468Z,8.50
2022-11-04T23:43:50.127Z,8.60
2022-11-04T23:46:42.332Z,8.60
2022-11-04T23:49:12.644Z,8.60
2022-11-04T23:51:58.562Z,8.50
2022-11-04T23:54:46.169Z,8.60
2022-11-04T23:57:32.479Z,8.60
